Close

Questo sito utlizza cookie. Può leggere come li usiamo nella nostra Privacy Policy.

Ronchi Tower
Ronchi Tower

From Facebook

METAR & TAF

2018/05/20 18:50 LIPQ 201850Z 07009KT 040V100 9999 FEW070 22/12 Q1015
2018/05/20 18:21 TAF LIPQ 201700Z 2018/2118 08010KT 9999 SCT060
2018/05/20 18:50 LIPZ 201850Z 03009KT 9999 FEW070 21/12 Q1015 NOSIG
2018/05/20 18:21 TAF LIPZ 201700Z 2018/2124 VRB06KT 9999 SCT040 BECMG 2020/2023 03012KT BECMG 2109/2111 13008KT
2018/05/20 18:50 LIPH 201850Z 36003KT 320V020 9999 FEW040 SCT060 21/12 Q1015
2018/05/20 18:21 TAF LIPH 201700Z 2018/2118 06010KT 9999 FEW040 BECMG 2114/2116 VRB05KT
2018/05/20 18:50 LIRF 201850Z 07007KT 9999 FEW050 20/14 Q1012 NOSIG
2018/05/20 18:21 TAF LIRF 201700Z 2018/2124 28010KT 9999 SCT030 BECMG 2018/2020 VRB05KT TEMPO BECMG 2110/2112 25010KT BECMG 2118/2120 VRB05KT
2018/05/20 18:50 LIML 201850Z 29003KT 230V340 5000 TSRA SCT030CB BKN060 17/15 Q1016 WS IN APCH 0200 FT NOSIG
2018/05/20 18:21 TAF LIML 201700Z 2018/2118 VRB05KT 9999 BKN050 TEMPO 2018/2103 4000 TSRA
2018/05/20 18:50 EDDM 201850Z 05006KT CAVOK 17/09 Q1017 NOSIG
2018/05/20 18:27 TAF EDDM 201700Z 2018/2124 08007KT CAVOK
2018/05/20 18:50 EGSS 201850Z AUTO 12008KT 9999 NCD 16/11 Q1020
2018/05/20 18:15 TAF EGSS 201700Z 2018/2124 12005KT 9999 FEW035 BECMG 2021/2024 6000 TEMPO 2100/2108 2500 BR BKN002 PROB40 2101/2107 0200 FG OVC000 BECMG 2107/2110 9999 BECMG 2118/2121 01010KT

FlightRadar24

Radar Meteo

Traffic data

Marzo 2018

Passeggeri: 57555-3,4% (rank: 23)
Nazionali 39679 +1,0% 21°
Internazionali 17689 -11,7% 23°

Movimenti: 1074-16,3% (rank: 21)
Tot commerciale 653 -10,3% 22°
Aviazione generale 421 -24,1%

Cargo (tons): 96,3109,5% (rank: 18)

Gennaio - Marzo 2018

Passeggeri: 155953-1,4% (rank: 23)
Nazionali 108431 +3,9% 21°
Internazionali 47066 -11,5% 22°

Movimenti: 3163-14,5% (rank: 21)
Tot commerciale 1876 -7,3% 21°
Aviazione generale 1287 -23,3%

Cargo (tons): 125,6+16,7% (rank: 21)

Photo

Douglas DC-6B
Douglas DC-6B
Distinct views: 12
Douglas DC-6B
Douglas DC-6B
Distinct views: 49
ATR ATR-72
ATR ATR-72
Distinct views: 714
Canadair CL-600 CRJ-701ER
Canadair CL-600 CRJ-701ER
Total views: 475